sensor_id;sensor_type;location;lat;lon;timestamp;P1;durP1;ratioP1;P2;durP2;ratioP2
52878;SDS011;38747;53.140;6.498;2023-06-04T00:01:39;8.82;;;2.17;;
52878;SDS011;38747;53.140;6.498;2023-06-04T00:04:05;7.07;;;2.08;;
52878;SDS011;38747;53.140;6.498;2023-06-04T00:06:31;7.63;;;2.30;;
52878;SDS011;38747;53.140;6.498;2023-06-04T00:08:56;5.53;;;2.00;;
52878;SDS011;38747;53.140;6.498;2023-06-04T00:11:22;8.70;;;2.20;;
52878;SDS011;38747;53.140;6.498;2023-06-04T00:13:48;7.63;;;2.10;;
52878;SDS011;38747;53.140;6.498;2023-06-04T00:16:13;6.20;;;2.15;;
52878;SDS011;38747;53.140;6.498;2023-06-04T00:18:39;7.60;;;2.22;;
52878;SDS011;38747;53.140;6.498;2023-06-04T00:21:05;6.03;;;2.33;;
52878;SDS011;38747;53.140;6.498;2023-06-04T00:23:30;7.78;;;2.10;;
52878;SDS011;38747;53.140;6.498;2023-06-04T00:25:56;7.30;;;2.23;;
52878;SDS011;38747;53.140;6.498;2023-06-04T00:28:22;7.40;;;2.20;;
52878;SDS011;38747;53.140;6.498;2023-06-04T00:30:47;8.15;;;2.30;;
52878;SDS011;38747;53.140;6.498;2023-06-04T00:33:13;5.90;;;2.00;;
52878;SDS011;38747;53.140;6.498;2023-06-04T00:35:38;9.45;;;2.30;;
52878;SDS011;38747;53.140;6.498;2023-06-04T00:38:04;8.43;;;2.40;;
52878;SDS011;38747;53.140;6.498;2023-06-04T00:40:30;7.70;;;2.40;;
52878;SDS011;38747;53.140;6.498;2023-06-04T00:42:55;8.33;;;2.23;;
52878;SDS011;38747;53.140;6.498;2023-06-04T00:45:21;7.50;;;2.17;;
52878;SDS011;38747;53.140;6.498;2023-06-04T00:47:50;7.00;;;2.00;;
52878;SDS011;38747;53.140;6.498;2023-06-04T00:50:16;9.77;;;2.17;;
52878;SDS011;38747;53.140;6.498;2023-06-04T00:52:43;8.18;;;2.08;;
52878;SDS011;38747;53.140;6.498;2023-06-04T00:55:09;7.53;;;2.27;;
52878;SDS011;38747;53.140;6.498;2023-06-04T00:57:35;7.40;;;2.22;;
52878;SDS011;38747;53.140;6.498;2023-06-04T01:00:00;7.60;;;2.50;;
52878;SDS011;38747;53.140;6.498;2023-06-04T01:02:26;9.63;;;2.20;;
52878;SDS011;38747;53.140;6.498;2023-06-04T01:05:03;10.95;;;2.63;;
52878;SDS011;38747;53.140;6.498;2023-06-04T01:07:54;8.88;;;2.33;;
52878;SDS011;38747;53.140;6.498;2023-06-04T01:10:21;9.63;;;2.60;;
52878;SDS011;38747;53.140;6.498;2023-06-04T01:12:47;7.77;;;2.47;;
52878;SDS011;38747;53.140;6.498;2023-06-04T01:15:12;7.55;;;2.10;;
52878;SDS011;38747;53.140;6.498;2023-06-04T01:17:42;10.70;;;2.77;;
52878;SDS011;38747;53.140;6.498;2023-06-04T01:25:41;8.27;;;2.75;;
52878;SDS011;38747;53.140;6.498;2023-06-04T01:28:09;7.40;;;2.33;;
52878;SDS011;38747;53.140;6.498;2023-06-04T01:30:37;8.18;;;2.45;;
52878;SDS011;38747;53.140;6.498;2023-06-04T01:33:07;7.07;;;2.50;;
52878;SDS011;38747;53.140;6.498;2023-06-04T01:35:34;9.57;;;2.75;;
52878;SDS011;38747;53.140;6.498;2023-06-04T01:38:00;10.07;;;2.80;;
52878;SDS011;38747;53.140;6.498;2023-06-04T01:40:26;7.88;;;2.50;;
52878;SDS011;38747;53.140;6.498;2023-06-04T01:42:52;8.32;;;2.45;;
52878;SDS011;38747;53.140;6.498;2023-06-04T01:45:18;9.17;;;2.93;;
52878;SDS011;38747;53.140;6.498;2023-06-04T01:47:45;9.15;;;2.90;;
52878;SDS011;38747;53.140;6.498;2023-06-04T01:50:11;10.73;;;3.22;;
52878;SDS011;38747;53.140;6.498;2023-06-04T01:52:36;8.03;;;2.80;;
52878;SDS011;38747;53.140;6.498;2023-06-04T01:55:03;8.80;;;3.28;;
52878;SDS011;38747;53.140;6.498;2023-06-04T01:57:30;10.27;;;3.55;;
52878;SDS011;38747;53.140;6.498;2023-06-04T01:59:56;9.75;;;3.75;;
52878;SDS011;38747;53.140;6.498;2023-06-04T02:02:22;9.10;;;3.07;;
52878;SDS011;38747;53.140;6.498;2023-06-04T02:04:47;7.38;;;2.90;;
52878;SDS011;38747;53.140;6.498;2023-06-04T02:07:16;9.50;;;2.90;;
52878;SDS011;38747;53.140;6.498;2023-06-04T02:09:45;6.80;;;2.60;;
52878;SDS011;38747;53.140;6.498;2023-06-04T02:12:11;6.68;;;2.65;;
52878;SDS011;38747;53.140;6.498;2023-06-04T02:14:37;8.02;;;2.83;;
52878;SDS011;38747;53.140;6.498;2023-06-04T02:17:03;8.50;;;3.40;;
52878;SDS011;38747;53.140;6.498;2023-06-04T02:19:29;5.72;;;2.70;;
52878;SDS011;38747;53.140;6.498;2023-06-04T02:21:58;7.18;;;2.80;;
52878;SDS011;38747;53.140;6.498;2023-06-04T02:24:24;7.93;;;2.90;;
52878;SDS011;38747;53.140;6.498;2023-06-04T02:26:50;8.03;;;2.73;;
52878;SDS011;38747;53.140;6.498;2023-06-04T02:29:16;7.65;;;3.53;;
52878;SDS011;38747;53.140;6.498;2023-06-04T02:31:41;10.23;;;3.30;;
52878;SDS011;38747;53.140;6.498;2023-06-04T02:34:07;9.07;;;3.77;;
52878;SDS011;38747;53.140;6.498;2023-06-04T02:36:33;15.35;;;3.97;;
52878;SDS011;38747;53.140;6.498;2023-06-04T02:38:59;9.55;;;3.85;;
52878;SDS011;38747;53.140;6.498;2023-06-04T02:41:26;11.07;;;4.50;;
52878;SDS011;38747;53.140;6.498;2023-06-04T02:43:51;9.85;;;3.97;;
52878;SDS011;38747;53.140;6.498;2023-06-04T02:46:17;9.63;;;3.57;;
52878;SDS011;38747;53.140;6.498;2023-06-04T02:48:43;8.77;;;3.28;;
52878;SDS011;38747;53.140;6.498;2023-06-04T02:51:08;7.33;;;3.03;;
52878;SDS011;38747;53.140;6.498;2023-06-04T02:53:35;7.43;;;3.20;;
52878;SDS011;38747;53.140;6.498;2023-06-04T02:56:01;7.95;;;3.00;;
52878;SDS011;38747;53.140;6.498;2023-06-04T02:58:27;7.83;;;3.13;;
52878;SDS011;38747;53.140;6.498;2023-06-04T03:00:53;9.35;;;3.33;;
52878;SDS011;38747;53.140;6.498;2023-06-04T03:03:20;8.00;;;2.97;;
52878;SDS011;38747;53.140;6.498;2023-06-04T03:05:47;6.95;;;3.30;;
52878;SDS011;38747;53.140;6.498;2023-06-04T03:08:13;7.13;;;2.97;;
52878;SDS011;38747;53.140;6.498;2023-06-04T03:10:39;9.30;;;3.20;;
52878;SDS011;38747;53.140;6.498;2023-06-04T03:13:04;8.03;;;3.17;;
52878;SDS011;38747;53.140;6.498;2023-06-04T03:15:30;6.70;;;3.20;;
52878;SDS011;38747;53.140;6.498;2023-06-04T03:17:55;9.53;;;3.33;;
52878;SDS011;38747;53.140;6.498;2023-06-04T03:20:22;8.60;;;3.35;;
52878;SDS011;38747;53.140;6.498;2023-06-04T03:22:49;8.85;;;3.28;;
52878;SDS011;38747;53.140;6.498;2023-06-04T03:25:16;7.63;;;3.35;;
52878;SDS011;38747;53.140;6.498;2023-06-04T03:27:42;6.93;;;3.17;;
52878;SDS011;38747;53.140;6.498;2023-06-04T03:30:08;7.75;;;3.05;;
52878;SDS011;38747;53.140;6.498;2023-06-04T03:32:35;9.20;;;3.25;;
52878;SDS011;38747;53.140;6.498;2023-06-04T03:35:00;7.93;;;3.40;;
52878;SDS011;38747;53.140;6.498;2023-06-04T03:37:26;7.60;;;3.15;;
52878;SDS011;38747;53.140;6.498;2023-06-04T03:39:52;6.82;;;3.20;;
52878;SDS011;38747;53.140;6.498;2023-06-04T03:42:18;7.00;;;2.93;;
52878;SDS011;38747;53.140;6.498;2023-06-04T03:44:44;9.40;;;3.13;;
52878;SDS011;38747;53.140;6.498;2023-06-04T03:47:11;7.10;;;3.17;;
52878;SDS011;38747;53.140;6.498;2023-06-04T03:49:36;6.80;;;3.30;;
52878;SDS011;38747;53.140;6.498;2023-06-04T03:52:02;6.30;;;3.08;;
52878;SDS011;38747;53.140;6.498;2023-06-04T03:54:28;7.40;;;3.53;;
52878;SDS011;38747;53.140;6.498;2023-06-04T03:56:53;7.45;;;3.17;;
52878;SDS011;38747;53.140;6.498;2023-06-04T03:59:19;6.77;;;2.90;;
52878;SDS011;38747;53.140;6.498;2023-06-04T04:01:45;6.90;;;3.28;;
52878;SDS011;38747;53.140;6.498;2023-06-04T04:04:10;6.67;;;3.20;;
52878;SDS011;38747;53.140;6.498;2023-06-04T04:06:36;7.37;;;3.07;;
52878;SDS011;38747;53.140;6.498;2023-06-04T04:09:02;6.65;;;3.00;;
52878;SDS011;38747;53.140;6.498;2023-06-04T04:11:28;7.05;;;3.00;;
52878;SDS011;38747;53.140;6.498;2023-06-04T04:13:54;6.60;;;3.00;;
52878;SDS011;38747;53.140;6.498;2023-06-04T04:16:21;7.18;;;2.83;;
52878;SDS011;38747;53.140;6.498;2023-06-04T04:18:47;6.40;;;2.93;;
52878;SDS011;38747;53.140;6.498;2023-06-04T04:21:12;7.37;;;4.03;;
52878;SDS011;38747;53.140;6.498;2023-06-04T04:23:39;6.68;;;3.42;;
52878;SDS011;38747;53.140;6.498;2023-06-04T04:26:08;6.97;;;3.45;;
52878;SDS011;38747;53.140;6.498;2023-06-04T04:28:35;7.30;;;3.30;;
52878;SDS011;38747;53.140;6.498;2023-06-04T04:31:01;6.77;;;3.30;;
52878;SDS011;38747;53.140;6.498;2023-06-04T04:33:27;7.47;;;3.30;;
52878;SDS011;38747;53.140;6.498;2023-06-04T04:35:57;7.47;;;3.40;;
52878;SDS011;38747;53.140;6.498;2023-06-04T04:38:25;7.20;;;3.42;;
52878;SDS011;38747;53.140;6.498;2023-06-04T04:40:50;8.47;;;3.63;;
52878;SDS011;38747;53.140;6.498;2023-06-04T04:43:38;7.43;;;3.20;;
52878;SDS011;38747;53.140;6.498;2023-06-04T04:46:06;5.85;;;3.22;;
52878;SDS011;38747;53.140;6.498;2023-06-04T04:48:32;6.22;;;3.20;;
52878;SDS011;38747;53.140;6.498;2023-06-04T04:50:58;7.80;;;3.33;;
52878;SDS011;38747;53.140;6.498;2023-06-04T04:53:24;7.70;;;3.30;;
52878;SDS011;38747;53.140;6.498;2023-06-04T04:55:51;12.57;;;3.55;;
52878;SDS011;38747;53.140;6.498;2023-06-04T04:58:16;9.63;;;3.80;;
52878;SDS011;38747;53.140;6.498;2023-06-04T05:00:42;8.95;;;3.67;;
52878;SDS011;38747;53.140;6.498;2023-06-04T05:03:09;8.85;;;3.80;;
52878;SDS011;38747;53.140;6.498;2023-06-04T05:05:34;10.43;;;3.80;;
52878;SDS011;38747;53.140;6.498;2023-06-04T05:08:00;9.00;;;3.60;;
52878;SDS011;38747;53.140;6.498;2023-06-04T05:10:26;8.63;;;4.03;;
52878;SDS011;38747;53.140;6.498;2023-06-04T05:12:55;8.85;;;4.10;;
52878;SDS011;38747;53.140;6.498;2023-06-04T05:15:22;9.27;;;4.53;;
52878;SDS011;38747;53.140;6.498;2023-06-04T05:17:49;10.30;;;4.50;;
52878;SDS011;38747;53.140;6.498;2023-06-04T05:20:17;10.93;;;4.75;;
52878;SDS011;38747;53.140;6.498;2023-06-04T05:22:44;11.07;;;4.82;;
52878;SDS011;38747;53.140;6.498;2023-06-04T05:25:10;10.85;;;4.78;;
52878;SDS011;38747;53.140;6.498;2023-06-04T05:27:36;10.20;;;4.72;;
52878;SDS011;38747;53.140;6.498;2023-06-04T05:30:02;11.97;;;4.77;;
52878;SDS011;38747;53.140;6.498;2023-06-04T05:32:29;11.60;;;4.40;;
52878;SDS011;38747;53.140;6.498;2023-06-04T05:34:55;12.65;;;4.30;;
52878;SDS011;38747;53.140;6.498;2023-06-04T05:37:25;10.32;;;4.55;;
52878;SDS011;38747;53.140;6.498;2023-06-04T05:39:55;9.85;;;4.38;;
52878;SDS011;38747;53.140;6.498;2023-06-04T05:42:21;13.03;;;4.90;;
52878;SDS011;38747;53.140;6.498;2023-06-04T05:44:47;10.30;;;4.35;;
52878;SDS011;38747;53.140;6.498;2023-06-04T05:47:13;9.43;;;3.83;;
52878;SDS011;38747;53.140;6.498;2023-06-04T05:49:40;12.00;;;3.78;;
52878;SDS011;38747;53.140;6.498;2023-06-04T05:52:06;9.63;;;3.17;;
52878;SDS011;38747;53.140;6.498;2023-06-04T05:54:31;14.13;;;3.07;;
52878;SDS011;38747;53.140;6.498;2023-06-04T05:56:57;9.55;;;2.80;;
52878;SDS011;38747;53.140;6.498;2023-06-04T05:59:23;10.27;;;2.90;;
52878;SDS011;38747;53.140;6.498;2023-06-04T06:01:49;9.47;;;2.40;;
52878;SDS011;38747;53.140;6.498;2023-06-04T06:04:15;8.20;;;2.30;;
52878;SDS011;38747;53.140;6.498;2023-06-04T06:06:44;8.52;;;2.10;;
52878;SDS011;38747;53.140;6.498;2023-06-04T06:09:13;7.50;;;2.20;;
52878;SDS011;38747;53.140;6.498;2023-06-04T06:11:39;8.35;;;2.15;;
52878;SDS011;38747;53.140;6.498;2023-06-04T06:14:06;6.60;;;1.70;;
52878;SDS011;38747;53.140;6.498;2023-06-04T06:16:31;6.45;;;1.73;;
52878;SDS011;38747;53.140;6.498;2023-06-04T06:19:00;6.75;;;1.60;;
52878;SDS011;38747;53.140;6.498;2023-06-04T06:21:26;9.52;;;2.38;;
52878;SDS011;38747;53.140;6.498;2023-06-04T06:23:53;5.87;;;1.50;;
52878;SDS011;38747;53.140;6.498;2023-06-04T06:26:19;5.97;;;1.55;;
52878;SDS011;38747;53.140;6.498;2023-06-04T06:28:45;5.43;;;1.38;;
52878;SDS011;38747;53.140;6.498;2023-06-04T06:31:10;6.80;;;1.60;;
52878;SDS011;38747;53.140;6.498;2023-06-04T06:33:36;5.82;;;1.33;;
52878;SDS011;38747;53.140;6.498;2023-06-04T06:36:06;4.43;;;1.23;;
52878;SDS011;38747;53.140;6.498;2023-06-04T06:38:32;5.23;;;1.50;;
52878;SDS011;38747;53.140;6.498;2023-06-04T06:40:58;6.78;;;1.50;;
52878;SDS011;38747;53.140;6.498;2023-06-04T06:43:24;8.50;;;1.70;;
52878;SDS011;38747;53.140;6.498;2023-06-04T06:45:50;8.33;;;2.27;;
52878;SDS011;38747;53.140;6.498;2023-06-04T06:48:16;5.63;;;1.90;;
52878;SDS011;38747;53.140;6.498;2023-06-04T06:50:41;8.67;;;2.20;;
52878;SDS011;38747;53.140;6.498;2023-06-04T06:53:07;6.40;;;2.00;;
52878;SDS011;38747;53.140;6.498;2023-06-04T06:55:33;8.73;;;2.20;;
52878;SDS011;38747;53.140;6.498;2023-06-04T06:57:58;7.28;;;1.95;;
52878;SDS011;38747;53.140;6.498;2023-06-04T07:00:25;8.47;;;2.13;;
52878;SDS011;38747;53.140;6.498;2023-06-04T07:02:51;6.97;;;1.80;;
52878;SDS011;38747;53.140;6.498;2023-06-04T07:05:17;7.40;;;1.90;;
52878;SDS011;38747;53.140;6.498;2023-06-04T07:07:42;6.72;;;2.42;;
52878;SDS011;38747;53.140;6.498;2023-06-04T07:10:08;7.40;;;2.00;;
52878;SDS011;38747;53.140;6.498;2023-06-04T07:12:34;7.72;;;1.95;;
52878;SDS011;38747;53.140;6.498;2023-06-04T07:15:00;6.47;;;1.90;;
52878;SDS011;38747;53.140;6.498;2023-06-04T07:17:26;6.00;;;1.30;;
52878;SDS011;38747;53.140;6.498;2023-06-04T07:19:51;5.72;;;1.60;;
52878;SDS011;38747;53.140;6.498;2023-06-04T07:22:17;5.40;;;1.30;;
52878;SDS011;38747;53.140;6.498;2023-06-04T07:24:42;6.47;;;1.27;;
52878;SDS011;38747;53.140;6.498;2023-06-04T07:27:14;5.22;;;1.27;;
52878;SDS011;38747;53.140;6.498;2023-06-04T07:29:42;5.82;;;1.40;;
52878;SDS011;38747;53.140;6.498;2023-06-04T07:32:09;5.57;;;1.47;;
52878;SDS011;38747;53.140;6.498;2023-06-04T07:34:34;8.20;;;1.40;;
52878;SDS011;38747;53.140;6.498;2023-06-04T07:37:02;6.70;;;1.58;;
52878;SDS011;38747;53.140;6.498;2023-06-04T07:39:27;7.03;;;1.30;;
52878;SDS011;38747;53.140;6.498;2023-06-04T07:41:53;4.53;;;1.10;;
52878;SDS011;38747;53.140;6.498;2023-06-04T07:44:19;5.50;;;1.77;;
52878;SDS011;38747;53.140;6.498;2023-06-04T07:46:45;4.03;;;1.20;;
52878;SDS011;38747;53.140;6.498;2023-06-04T07:49:10;6.33;;;1.30;;
52878;SDS011;38747;53.140;6.498;2023-06-04T07:51:36;7.28;;;1.50;;
52878;SDS011;38747;53.140;6.498;2023-06-04T07:54:02;4.85;;;1.40;;
52878;SDS011;38747;53.140;6.498;2023-06-04T07:56:28;4.90;;;1.13;;
52878;SDS011;38747;53.140;6.498;2023-06-04T07:58:53;4.65;;;1.20;;
52878;SDS011;38747;53.140;6.498;2023-06-04T08:01:20;4.00;;;1.17;;
52878;SDS011;38747;53.140;6.498;2023-06-04T08:03:46;6.20;;;1.40;;
52878;SDS011;38747;53.140;6.498;2023-06-04T08:06:12;7.25;;;1.45;;
52878;SDS011;38747;53.140;6.498;2023-06-04T08:08:42;5.50;;;1.38;;
52878;SDS011;38747;53.140;6.498;2023-06-04T08:11:10;4.00;;;1.10;;
52878;SDS011;38747;53.140;6.498;2023-06-04T08:13:36;10.40;;;1.70;;
52878;SDS011;38747;53.140;6.498;2023-06-04T08:16:02;5.90;;;1.30;;
52878;SDS011;38747;53.140;6.498;2023-06-04T08:18:27;5.43;;;1.17;;
52878;SDS011;38747;53.140;6.498;2023-06-04T08:20:54;5.43;;;1.30;;
52878;SDS011;38747;53.140;6.498;2023-06-04T08:23:20;3.38;;;1.33;;
52878;SDS011;38747;53.140;6.498;2023-06-04T08:25:45;7.23;;;1.30;;
52878;SDS011;38747;53.140;6.498;2023-06-04T08:28:13;6.15;;;1.30;;
52878;SDS011;38747;53.140;6.498;2023-06-04T08:30:39;6.50;;;1.40;;
52878;SDS011;38747;53.140;6.498;2023-06-04T08:33:04;5.15;;;1.23;;
52878;SDS011;38747;53.140;6.498;2023-06-04T08:35:30;4.97;;;1.40;;
52878;SDS011;38747;53.140;6.498;2023-06-04T08:37:56;5.35;;;1.20;;
52878;SDS011;38747;53.140;6.498;2023-06-04T08:40:21;6.70;;;1.47;;
52878;SDS011;38747;53.140;6.498;2023-06-04T08:42:47;6.57;;;1.30;;
52878;SDS011;38747;53.140;6.498;2023-06-04T08:45:14;3.95;;;1.30;;
52878;SDS011;38747;53.140;6.498;2023-06-04T08:47:43;5.32;;;1.40;;
52878;SDS011;38747;53.140;6.498;2023-06-04T08:50:10;5.23;;;1.20;;
52878;SDS011;38747;53.140;6.498;2023-06-04T08:52:37;6.03;;;1.10;;
52878;SDS011;38747;53.140;6.498;2023-06-04T08:55:04;4.80;;;1.10;;
52878;SDS011;38747;53.140;6.498;2023-06-04T08:57:31;4.53;;;1.10;;
52878;SDS011;38747;53.140;6.498;2023-06-04T08:59:56;6.10;;;1.20;;
52878;SDS011;38747;53.140;6.498;2023-06-04T09:02:22;6.07;;;1.33;;
52878;SDS011;38747;53.140;6.498;2023-06-04T09:04:50;7.10;;;1.13;;
52878;SDS011;38747;53.140;6.498;2023-06-04T09:07:16;5.57;;;1.40;;
52878;SDS011;38747;53.140;6.498;2023-06-04T09:09:44;6.47;;;1.40;;
52878;SDS011;38747;53.140;6.498;2023-06-04T09:12:20;5.57;;;1.20;;
52878;SDS011;38747;53.140;6.498;2023-06-04T09:14:48;4.97;;;1.45;;
52878;SDS011;38747;53.140;6.498;2023-06-04T09:17:15;7.27;;;1.30;;
52878;SDS011;38747;53.140;6.498;2023-06-04T09:19:50;7.07;;;1.20;;
52878;SDS011;38747;53.140;6.498;2023-06-04T09:22:16;5.03;;;1.42;;
52878;SDS011;38747;53.140;6.498;2023-06-04T09:24:43;4.65;;;1.23;;
52878;SDS011;38747;53.140;6.498;2023-06-04T09:27:15;5.25;;;1.30;;
52878;SDS011;38747;53.140;6.498;2023-06-04T09:29:49;5.37;;;1.40;;
52878;SDS011;38747;53.140;6.498;2023-06-04T09:32:28;6.70;;;1.27;;
52878;SDS011;38747;53.140;6.498;2023-06-04T09:34:55;6.82;;;1.60;;
52878;SDS011;38747;53.140;6.498;2023-06-04T09:37:36;6.95;;;1.08;;
52878;SDS011;38747;53.140;6.498;2023-06-04T09:40:02;4.72;;;1.23;;
52878;SDS011;38747;53.140;6.498;2023-06-04T09:42:41;5.27;;;1.43;;
52878;SDS011;38747;53.140;6.498;2023-06-04T09:45:08;5.13;;;1.20;;
52878;SDS011;38747;53.140;6.498;2023-06-04T09:47:44;5.28;;;1.20;;
52878;SDS011;38747;53.140;6.498;2023-06-04T09:50:13;5.80;;;1.20;;
52878;SDS011;38747;53.140;6.498;2023-06-04T09:52:38;5.63;;;1.10;;
52878;SDS011;38747;53.140;6.498;2023-06-04T09:55:17;2.97;;;1.10;;
52878;SDS011;38747;53.140;6.498;2023-06-04T09:57:48;5.38;;;1.30;;
52878;SDS011;38747;53.140;6.498;2023-06-04T10:00:19;4.47;;;1.10;;
52878;SDS011;38747;53.140;6.498;2023-06-04T10:02:46;5.57;;;1.55;;
52878;SDS011;38747;53.140;6.498;2023-06-04T10:05:14;4.20;;;1.10;;
52878;SDS011;38747;53.140;6.498;2023-06-04T10:07:42;3.47;;;0.90;;
52878;SDS011;38747;53.140;6.498;2023-06-04T10:10:11;4.43;;;1.08;;
52878;SDS011;38747;53.140;6.498;2023-06-04T10:12:55;4.40;;;1.10;;
52878;SDS011;38747;53.140;6.498;2023-06-04T10:15:32;5.65;;;1.30;;
52878;SDS011;38747;53.140;6.498;2023-06-04T10:18:01;6.32;;;1.30;;
52878;SDS011;38747;53.140;6.498;2023-06-04T10:20:27;5.00;;;1.20;;
52878;SDS011;38747;53.140;6.498;2023-06-04T10:22:53;4.38;;;1.20;;
52878;SDS011;38747;53.140;6.498;2023-06-04T10:25:20;5.68;;;1.40;;
52878;SDS011;38747;53.140;6.498;2023-06-04T10:27:46;4.10;;;1.30;;
52878;SDS011;38747;53.140;6.498;2023-06-04T10:30:12;4.32;;;1.10;;
52878;SDS011;38747;53.140;6.498;2023-06-04T10:32:38;3.17;;;1.10;;
52878;SDS011;38747;53.140;6.498;2023-06-04T10:35:04;3.70;;;1.10;;
52878;SDS011;38747;53.140;6.498;2023-06-04T10:37:32;4.03;;;1.30;;
52878;SDS011;38747;53.140;6.498;2023-06-04T10:39:58;4.43;;;1.20;;
52878;SDS011;38747;53.140;6.498;2023-06-04T10:42:24;5.40;;;1.33;;
52878;SDS011;38747;53.140;6.498;2023-06-04T10:44:51;5.05;;;1.25;;
52878;SDS011;38747;53.140;6.498;2023-06-04T10:47:21;4.75;;;1.17;;
52878;SDS011;38747;53.140;6.498;2023-06-04T10:49:52;2.60;;;1.00;;
52878;SDS011;38747;53.140;6.498;2023-06-04T10:52:19;4.85;;;1.00;;
52878;SDS011;38747;53.140;6.498;2023-06-04T10:54:45;7.07;;;1.25;;
52878;SDS011;38747;53.140;6.498;2023-06-04T10:57:14;4.00;;;1.13;;
52878;SDS011;38747;53.140;6.498;2023-06-04T10:59:42;3.30;;;0.90;;
52878;SDS011;38747;53.140;6.498;2023-06-04T11:02:20;4.43;;;1.20;;
52878;SDS011;38747;53.140;6.498;2023-06-04T11:04:47;3.42;;;1.13;;
52878;SDS011;38747;53.140;6.498;2023-06-04T11:07:23;3.53;;;1.00;;
52878;SDS011;38747;53.140;6.498;2023-06-04T11:09:49;2.90;;;1.00;;
52878;SDS011;38747;53.140;6.498;2023-06-04T11:12:15;5.13;;;1.10;;
52878;SDS011;38747;53.140;6.498;2023-06-04T11:14:41;5.55;;;1.35;;
52878;SDS011;38747;53.140;6.498;2023-06-04T11:17:18;3.83;;;1.02;;
52878;SDS011;38747;53.140;6.498;2023-06-04T11:19:44;4.27;;;1.13;;
52878;SDS011;38747;53.140;6.498;2023-06-04T11:22:10;5.07;;;0.90;;
52878;SDS011;38747;53.140;6.498;2023-06-04T11:24:39;4.90;;;1.40;;
52878;SDS011;38747;53.140;6.498;2023-06-04T11:27:05;3.80;;;0.97;;
52878;SDS011;38747;53.140;6.498;2023-06-04T11:29:31;4.30;;;1.27;;
52878;SDS011;38747;53.140;6.498;2023-06-04T11:31:57;4.38;;;1.33;;
52878;SDS011;38747;53.140;6.498;2023-06-04T11:34:24;6.83;;;1.00;;
52878;SDS011;38747;53.140;6.498;2023-06-04T11:36:50;5.00;;;1.30;;
52878;SDS011;38747;53.140;6.498;2023-06-04T11:39:18;4.45;;;1.13;;
52878;SDS011;38747;53.140;6.498;2023-06-04T11:41:44;3.58;;;1.15;;
52878;SDS011;38747;53.140;6.498;2023-06-04T11:44:10;5.27;;;1.03;;
52878;SDS011;38747;53.140;6.498;2023-06-04T11:46:40;3.30;;;1.02;;
52878;SDS011;38747;53.140;6.498;2023-06-04T11:49:11;3.38;;;1.10;;
52878;SDS011;38747;53.140;6.498;2023-06-04T11:51:44;4.88;;;1.35;;
52878;SDS011;38747;53.140;6.498;2023-06-04T11:54:17;3.97;;;1.17;;
52878;SDS011;38747;53.140;6.498;2023-06-04T11:56:44;4.40;;;1.30;;
52878;SDS011;38747;53.140;6.498;2023-06-04T11:59:13;4.20;;;1.33;;
52878;SDS011;38747;53.140;6.498;2023-06-04T12:01:40;4.88;;;1.40;;
52878;SDS011;38747;53.140;6.498;2023-06-04T12:06:52;3.70;;;1.10;;
52878;SDS011;38747;53.140;6.498;2023-06-04T12:09:19;3.50;;;1.00;;
52878;SDS011;38747;53.140;6.498;2023-06-04T12:11:46;5.43;;;1.10;;
52878;SDS011;38747;53.140;6.498;2023-06-04T12:14:15;4.18;;;1.10;;
52878;SDS011;38747;53.140;6.498;2023-06-04T12:16:57;4.00;;;1.30;;
52878;SDS011;38747;53.140;6.498;2023-06-04T12:19:23;4.77;;;1.27;;
52878;SDS011;38747;53.140;6.498;2023-06-04T12:24:26;4.70;;;1.50;;
52878;SDS011;38747;53.140;6.498;2023-06-04T12:27:00;5.45;;;1.35;;
52878;SDS011;38747;53.140;6.498;2023-06-04T12:29:32;3.57;;;1.50;;
52878;SDS011;38747;53.140;6.498;2023-06-04T12:32:01;5.30;;;1.40;;
52878;SDS011;38747;53.140;6.498;2023-06-04T12:34:28;6.03;;;1.10;;
52878;SDS011;38747;53.140;6.498;2023-06-04T12:36:54;4.70;;;1.43;;
52878;SDS011;38747;53.140;6.498;2023-06-04T12:39:19;3.90;;;1.30;;
52878;SDS011;38747;53.140;6.498;2023-06-04T12:41:45;4.43;;;1.27;;
52878;SDS011;38747;53.140;6.498;2023-06-04T12:44:11;6.00;;;1.20;;
52878;SDS011;38747;53.140;6.498;2023-06-04T12:46:37;4.80;;;1.20;;
52878;SDS011;38747;53.140;6.498;2023-06-04T12:49:03;3.55;;;1.20;;
52878;SDS011;38747;53.140;6.498;2023-06-04T12:51:28;5.30;;;1.20;;
52878;SDS011;38747;53.140;6.498;2023-06-04T12:53:54;7.25;;;1.50;;
52878;SDS011;38747;53.140;6.498;2023-06-04T12:56:19;5.50;;;1.37;;
52878;SDS011;38747;53.140;6.498;2023-06-04T12:58:45;6.53;;;1.33;;
52878;SDS011;38747;53.140;6.498;2023-06-04T13:01:10;4.53;;;1.30;;
52878;SDS011;38747;53.140;6.498;2023-06-04T13:03:40;4.05;;;1.00;;
52878;SDS011;38747;53.140;6.498;2023-06-04T13:06:05;6.95;;;1.52;;
52878;SDS011;38747;53.140;6.498;2023-06-04T13:08:32;4.17;;;1.00;;
52878;SDS011;38747;53.140;6.498;2023-06-04T13:10:58;6.18;;;1.15;;
52878;SDS011;38747;53.140;6.498;2023-06-04T13:13:24;4.93;;;1.17;;
52878;SDS011;38747;53.140;6.498;2023-06-04T13:15:49;4.18;;;1.25;;
52878;SDS011;38747;53.140;6.498;2023-06-04T13:18:15;4.30;;;1.20;;
52878;SDS011;38747;53.140;6.498;2023-06-04T13:20:41;3.53;;;1.07;;
52878;SDS011;38747;53.140;6.498;2023-06-04T13:23:07;7.20;;;1.40;;
52878;SDS011;38747;53.140;6.498;2023-06-04T13:25:33;5.55;;;1.02;;
52878;SDS011;38747;53.140;6.498;2023-06-04T13:27:59;2.67;;;1.00;;
52878;SDS011;38747;53.140;6.498;2023-06-04T13:30:26;3.83;;;1.10;;
52878;SDS011;38747;53.140;6.498;2023-06-04T13:32:52;5.00;;;0.90;;
52878;SDS011;38747;53.140;6.498;2023-06-04T13:35:18;5.50;;;1.30;;
52878;SDS011;38747;53.140;6.498;2023-06-04T13:37:44;7.23;;;1.57;;
52878;SDS011;38747;53.140;6.498;2023-06-04T13:40:09;5.07;;;1.35;;
52878;SDS011;38747;53.140;6.498;2023-06-04T13:42:35;4.40;;;1.20;;
52878;SDS011;38747;53.140;6.498;2023-06-04T13:45:01;4.07;;;1.13;;
52878;SDS011;38747;53.140;6.498;2023-06-04T13:47:27;3.42;;;1.15;;
52878;SDS011;38747;53.140;6.498;2023-06-04T13:49:52;4.03;;;1.30;;
52878;SDS011;38747;53.140;6.498;2023-06-04T13:52:18;3.53;;;1.10;;
52878;SDS011;38747;53.140;6.498;2023-06-04T13:54:43;5.40;;;1.53;;
52878;SDS011;38747;53.140;6.498;2023-06-04T13:57:09;5.90;;;1.13;;
52878;SDS011;38747;53.140;6.498;2023-06-04T13:59:38;3.90;;;1.17;;
52878;SDS011;38747;53.140;6.498;2023-06-04T14:02:04;3.75;;;1.13;;
52878;SDS011;38747;53.140;6.498;2023-06-04T14:04:30;3.72;;;0.90;;
52878;SDS011;38747;53.140;6.498;2023-06-04T14:06:56;4.60;;;1.10;;
52878;SDS011;38747;53.140;6.498;2023-06-04T14:09:22;3.92;;;1.20;;
52878;SDS011;38747;53.140;6.498;2023-06-04T14:11:48;3.22;;;0.95;;
52878;SDS011;38747;53.140;6.498;2023-06-04T14:14:18;4.07;;;1.20;;
52878;SDS011;38747;53.140;6.498;2023-06-04T14:16:44;3.83;;;1.00;;
52878;SDS011;38747;53.140;6.498;2023-06-04T14:19:10;5.85;;;1.40;;
52878;SDS011;38747;53.140;6.498;2023-06-04T14:21:36;3.92;;;1.13;;
52878;SDS011;38747;53.140;6.498;2023-06-04T14:24:02;4.40;;;1.30;;
52878;SDS011;38747;53.140;6.498;2023-06-04T14:26:28;5.47;;;1.45;;
52878;SDS011;38747;53.140;6.498;2023-06-04T14:28:54;4.28;;;1.27;;
52878;SDS011;38747;53.140;6.498;2023-06-04T14:31:20;6.33;;;1.30;;
52878;SDS011;38747;53.140;6.498;2023-06-04T14:33:46;4.18;;;1.10;;
52878;SDS011;38747;53.140;6.498;2023-06-04T14:36:12;4.28;;;1.17;;
52878;SDS011;38747;53.140;6.498;2023-06-04T14:38:37;4.60;;;1.20;;
52878;SDS011;38747;53.140;6.498;2023-06-04T14:41:03;5.70;;;1.20;;
52878;SDS011;38747;53.140;6.498;2023-06-04T14:43:29;4.78;;;1.30;;
52878;SDS011;38747;53.140;6.498;2023-06-04T14:45:55;3.80;;;1.20;;
52878;SDS011;38747;53.140;6.498;2023-06-04T14:48:20;7.53;;;1.13;;
52878;SDS011;38747;53.140;6.498;2023-06-04T14:50:46;4.03;;;1.30;;
52878;SDS011;38747;53.140;6.498;2023-06-04T14:53:12;4.33;;;1.13;;
52878;SDS011;38747;53.140;6.498;2023-06-04T14:55:37;5.65;;;1.50;;
52878;SDS011;38747;53.140;6.498;2023-06-04T14:58:03;3.42;;;1.10;;